sensor_id;sensor_type;location;lat;lon;timestamp;temperature;humidity
53204;DHT22;39086;54.424;18.456;2022-08-20T05:45:48;22.10;99.90
53204;DHT22;39086;54.424;18.456;2022-08-20T05:54:49;22.30;99.90
53204;DHT22;39086;54.424;18.456;2022-08-20T05:55:52;22.40;99.90
53204;DHT22;39086;54.424;18.456;2022-08-20T06:14:27;22.70;99.90
53204;DHT22;39086;54.424;18.456;2022-08-20T06:15:30;22.70;99.90
53204;DHT22;39086;54.424;18.456;2022-08-20T06:16:36;22.70;99.90
53204;DHT22;39086;54.424;18.456;2022-08-20T06:17:39;22.70;99.90
53204;DHT22;39086;54.424;18.456;2022-08-20T06:18:59;22.70;99.90
53204;DHT22;39086;54.424;18.456;2022-08-20T06:20:06;22.80;99.90
53204;DHT22;39086;54.424;18.456;2022-08-20T06:21:18;22.80;99.90
53204;DHT22;39086;54.424;18.456;2022-08-20T06:22:21;22.90;99.90
53204;DHT22;39086;54.424;18.456;2022-08-20T06:23:28;22.90;99.90
53204;DHT22;39086;54.424;18.456;2022-08-20T06:24:51;23.00;99.90
53204;DHT22;39086;54.424;18.456;2022-08-20T06:25:54;22.90;99.90
53204;DHT22;39086;54.424;18.456;2022-08-20T06:27:05;23.00;99.90
53204;DHT22;39086;54.424;18.456;2022-08-20T06:28:08;22.90;99.90
53204;DHT22;39086;54.424;18.456;2022-08-20T06:29:12;23.00;99.90
53204;DHT22;39086;54.424;18.456;2022-08-20T06:30:15;23.10;99.90
53204;DHT22;39086;54.424;18.456;2022-08-20T06:31:25;23.20;99.90
53204;DHT22;39086;54.424;18.456;2022-08-20T06:32:28;23.20;99.90
53204;DHT22;39086;54.424;18.456;2022-08-20T06:33:33;23.20;99.90
53204;DHT22;39086;54.424;18.456;2022-08-20T06:34:36;23.20;99.90
53204;DHT22;39086;54.424;18.456;2022-08-20T06:35:51;23.20;99.90
53204;DHT22;39086;54.424;18.456;2022-08-20T06:37:13;23.20;99.90
53204;DHT22;39086;54.424;18.456;2022-08-20T06:38:16;23.30;99.90
53204;DHT22;39086;54.424;18.456;2022-08-20T06:39:19;23.30;99.90
53204;DHT22;39086;54.424;18.456;2022-08-20T06:40:24;23.30;99.90
53204;DHT22;39086;54.424;18.456;2022-08-20T06:41:36;23.40;99.90
53204;DHT22;39086;54.424;18.456;2022-08-20T06:42:38;23.50;99.90
53204;DHT22;39086;54.424;18.456;2022-08-20T06:43:49;23.40;99.90
53204;DHT22;39086;54.424;18.456;2022-08-20T06:44:54;23.40;99.90
53204;DHT22;39086;54.424;18.456;2022-08-20T06:46:00;23.50;99.90
53204;DHT22;39086;54.424;18.456;2022-08-20T06:47:12;23.50;99.90
53204;DHT22;39086;54.424;18.456;2022-08-20T06:48:16;23.40;99.90
53204;DHT22;39086;54.424;18.456;2022-08-20T06:49:19;23.40;99.90
53204;DHT22;39086;54.424;18.456;2022-08-20T06:50:24;23.50;99.90
53204;DHT22;39086;54.424;18.456;2022-08-20T06:51:34;23.50;99.90
53204;DHT22;39086;54.424;18.456;2022-08-20T06:52:40;23.50;99.90
53204;DHT22;39086;54.424;18.456;2022-08-20T06:54:04;23.40;99.90
53204;DHT22;39086;54.424;18.456;2022-08-20T06:55:10;23.40;99.90
53204;DHT22;39086;54.424;18.456;2022-08-20T06:56:13;23.40;99.90
53204;DHT22;39086;54.424;18.456;2022-08-20T06:57:16;23.40;99.90
53204;DHT22;39086;54.424;18.456;2022-08-20T06:58:26;23.40;99.90
53204;DHT22;39086;54.424;18.456;2022-08-20T06:59:45;23.50;99.90
53204;DHT22;39086;54.424;18.456;2022-08-20T07:00:55;23.50;99.90
53204;DHT22;39086;54.424;18.456;2022-08-20T07:01:57;23.50;99.90
53204;DHT22;39086;54.424;18.456;2022-08-20T07:03:07;23.50;99.90
53204;DHT22;39086;54.424;18.456;2022-08-20T07:04:09;23.50;99.90
53204;DHT22;39086;54.424;18.456;2022-08-20T07:05:13;23.50;99.90
53204;DHT22;39086;54.424;18.456;2022-08-20T07:06:17;23.50;99.90
53204;DHT22;39086;54.424;18.456;2022-08-20T07:07:20;23.50;99.90
53204;DHT22;39086;54.424;18.456;2022-08-20T07:08:30;23.50;99.90
53204;DHT22;39086;54.424;18.456;2022-08-20T07:09:33;23.50;99.90
53204;DHT22;39086;54.424;18.456;2022-08-20T07:10:36;23.50;99.90
53204;DHT22;39086;54.424;18.456;2022-08-20T07:11:40;23.50;99.90
53204;DHT22;39086;54.424;18.456;2022-08-20T07:12:43;23.50;99.90
53204;DHT22;39086;54.424;18.456;2022-08-20T07:13:54;23.60;99.90
53204;DHT22;39086;54.424;18.456;2022-08-20T07:14:57;23.60;99.90
53204;DHT22;39086;54.424;18.456;2022-08-20T07:16:00;23.50;99.90
53204;DHT22;39086;54.424;18.456;2022-08-20T07:17:04;23.50;99.90
53204;DHT22;39086;54.424;18.456;2022-08-20T07:18:13;23.50;99.90
53204;DHT22;39086;54.424;18.456;2022-08-20T07:19:29;23.50;99.90
53204;DHT22;39086;54.424;18.456;2022-08-20T07:20:41;23.50;99.90
53204;DHT22;39086;54.424;18.456;2022-08-20T07:21:45;23.50;99.90
53204;DHT22;39086;54.424;18.456;2022-08-20T07:22:49;23.60;99.90
53204;DHT22;39086;54.424;18.456;2022-08-20T07:23:52;23.60;99.90
53204;DHT22;39086;54.424;18.456;2022-08-20T07:25:02;23.50;99.90
53204;DHT22;39086;54.424;18.456;2022-08-20T07:26:06;23.50;99.90
53204;DHT22;39086;54.424;18.456;2022-08-20T07:27:09;23.50;99.90
53204;DHT22;39086;54.424;18.456;2022-08-20T07:28:14;23.60;99.90
53204;DHT22;39086;54.424;18.456;2022-08-20T07:29:24;23.60;99.90
53204;DHT22;39086;54.424;18.456;2022-08-20T07:30:53;23.50;99.90
53204;DHT22;39086;54.424;18.456;2022-08-20T07:32:17;23.60;99.90
53204;DHT22;39086;54.424;18.456;2022-08-20T07:33:44;23.70;99.90
53204;DHT22;39086;54.424;18.456;2022-08-20T07:34:51;23.70;99.90
53204;DHT22;39086;54.424;18.456;2022-08-20T07:36:01;23.70;99.90
53204;DHT22;39086;54.424;18.456;2022-08-20T07:37:05;23.80;99.90
53204;DHT22;39086;54.424;18.456;2022-08-20T07:38:14;23.80;99.90
53204;DHT22;39086;54.424;18.456;2022-08-20T07:39:21;23.70;99.90
53204;DHT22;39086;54.424;18.456;2022-08-20T07:40:26;23.70;99.90
53204;DHT22;39086;54.424;18.456;2022-08-20T07:41:37;23.70;99.90
53204;DHT22;39086;54.424;18.456;2022-08-20T07:42:40;23.70;99.90
53204;DHT22;39086;54.424;18.456;2022-08-20T07:43:43;23.80;99.90
53204;DHT22;39086;54.424;18.456;2022-08-20T07:44:54;23.70;99.90
53204;DHT22;39086;54.424;18.456;2022-08-20T07:45:58;23.80;99.90
53204;DHT22;39086;54.424;18.456;2022-08-20T07:47:02;23.70;99.90
53204;DHT22;39086;54.424;18.456;2022-08-20T07:48:07;23.70;99.90
53204;DHT22;39086;54.424;18.456;2022-08-20T07:49:12;23.70;99.90
53204;DHT22;39086;54.424;18.456;2022-08-20T07:50:22;23.60;99.90
53204;DHT22;39086;54.424;18.456;2022-08-20T07:51:26;23.70;99.90
53204;DHT22;39086;54.424;18.456;2022-08-20T07:52:36;23.70;99.90
53204;DHT22;39086;54.424;18.456;2022-08-20T07:53:40;23.70;99.90
53204;DHT22;39086;54.424;18.456;2022-08-20T07:54:44;23.70;99.90
53204;DHT22;39086;54.424;18.456;2022-08-20T07:55:47;23.70;99.90
53204;DHT22;39086;54.424;18.456;2022-08-20T07:57:00;23.70;99.90
53204;DHT22;39086;54.424;18.456;2022-08-20T07:58:16;23.70;99.90
53204;DHT22;39086;54.424;18.456;2022-08-20T07:59:34;23.80;99.90
53204;DHT22;39086;54.424;18.456;2022-08-20T08:00:36;23.80;99.90
53204;DHT22;39086;54.424;18.456;2022-08-20T08:01:40;23.80;99.90
53204;DHT22;39086;54.424;18.456;2022-08-20T08:02:49;23.80;99.90
53204;DHT22;39086;54.424;18.456;2022-08-20T08:03:52;23.90;99.90
53204;DHT22;39086;54.424;18.456;2022-08-20T08:04:55;23.80;99.90
53204;DHT22;39086;54.424;18.456;2022-08-20T08:05:59;23.80;99.90
53204;DHT22;39086;54.424;18.456;2022-08-20T08:07:01;23.80;99.90
53204;DHT22;39086;54.424;18.456;2022-08-20T08:08:16;23.80;99.90
53204;DHT22;39086;54.424;18.456;2022-08-20T08:09:21;23.90;99.90
53204;DHT22;39086;54.424;18.456;2022-08-20T08:10:26;23.90;99.90
53204;DHT22;39086;54.424;18.456;2022-08-20T08:11:30;23.80;99.90
53204;DHT22;39086;54.424;18.456;2022-08-20T08:12:38;23.90;99.90
53204;DHT22;39086;54.424;18.456;2022-08-20T08:13:48;23.90;99.90
53204;DHT22;39086;54.424;18.456;2022-08-20T08:14:51;23.90;99.90
53204;DHT22;39086;54.424;18.456;2022-08-20T08:15:57;23.90;99.90
53204;DHT22;39086;54.424;18.456;2022-08-20T08:17:04;23.90;99.90
53204;DHT22;39086;54.424;18.456;2022-08-20T08:18:10;24.00;99.90
53204;DHT22;39086;54.424;18.456;2022-08-20T08:19:20;24.00;99.90
53204;DHT22;39086;54.424;18.456;2022-08-20T08:20:23;23.90;99.90
53204;DHT22;39086;54.424;18.456;2022-08-20T08:21:26;24.00;99.90
53204;DHT22;39086;54.424;18.456;2022-08-20T08:22:30;23.90;99.90
53204;DHT22;39086;54.424;18.456;2022-08-20T08:23:34;23.90;99.90
53204;DHT22;39086;54.424;18.456;2022-08-20T08:24:45;23.90;99.90
53204;DHT22;39086;54.424;18.456;2022-08-20T08:25:59;23.90;99.90
53204;DHT22;39086;54.424;18.456;2022-08-20T08:27:03;23.90;99.90
53204;DHT22;39086;54.424;18.456;2022-08-20T08:28:05;23.90;99.90
53204;DHT22;39086;54.424;18.456;2022-08-20T08:29:09;23.90;99.90
53204;DHT22;39086;54.424;18.456;2022-08-20T08:30:20;23.90;99.90
53204;DHT22;39086;54.424;18.456;2022-08-20T08:31:22;23.80;99.90
53204;DHT22;39086;54.424;18.456;2022-08-20T08:32:27;23.90;99.90
53204;DHT22;39086;54.424;18.456;2022-08-20T08:33:32;23.90;99.90
53204;DHT22;39086;54.424;18.456;2022-08-20T08:34:35;23.90;99.90
53204;DHT22;39086;54.424;18.456;2022-08-20T08:35:46;23.90;99.90
53204;DHT22;39086;54.424;18.456;2022-08-20T08:36:48;24.00;99.90
53204;DHT22;39086;54.424;18.456;2022-08-20T08:37:52;24.10;99.90
53204;DHT22;39086;54.424;18.456;2022-08-20T08:38:55;24.20;99.90
53204;DHT22;39086;54.424;18.456;2022-08-20T08:40:05;24.20;99.90
53204;DHT22;39086;54.424;18.456;2022-08-20T08:41:14;24.30;99.90
53204;DHT22;39086;54.424;18.456;2022-08-20T08:42:25;24.30;99.90
53204;DHT22;39086;54.424;18.456;2022-08-20T08:43:41;24.40;99.90
53204;DHT22;39086;54.424;18.456;2022-08-20T08:44:54;24.50;99.90
53204;DHT22;39086;54.424;18.456;2022-08-20T08:46:00;24.40;99.90
53204;DHT22;39086;54.424;18.456;2022-08-20T08:47:07;24.40;99.90
53204;DHT22;39086;54.424;18.456;2022-08-20T08:48:16;24.40;99.90
53204;DHT22;39086;54.424;18.456;2022-08-20T08:49:21;24.30;99.90
53204;DHT22;39086;54.424;18.456;2022-08-20T08:50:39;24.30;99.90
53204;DHT22;39086;54.424;18.456;2022-08-20T08:51:58;24.30;99.90
53204;DHT22;39086;54.424;18.456;2022-08-20T08:53:06;24.40;99.90
53204;DHT22;39086;54.424;18.456;2022-08-20T08:54:13;24.40;99.90
53204;DHT22;39086;54.424;18.456;2022-08-20T08:55:20;24.40;99.90
53204;DHT22;39086;54.424;18.456;2022-08-20T08:56:31;24.40;99.90
53204;DHT22;39086;54.424;18.456;2022-08-20T08:57:34;24.50;99.90
53204;DHT22;39086;54.424;18.456;2022-08-20T08:58:43;24.50;99.90
53204;DHT22;39086;54.424;18.456;2022-08-20T08:59:53;24.70;99.90
53204;DHT22;39086;54.424;18.456;2022-08-20T09:02:40;24.80;99.90
53204;DHT22;39086;54.424;18.456;2022-08-20T09:03:56;25.00;99.90
53204;DHT22;39086;54.424;18.456;2022-08-20T09:05:02;25.20;99.90
53204;DHT22;39086;54.424;18.456;2022-08-20T09:06:14;25.30;99.90
53204;DHT22;39086;54.424;18.456;2022-08-20T09:07:19;25.40;99.90
53204;DHT22;39086;54.424;18.456;2022-08-20T09:08:25;25.40;99.90
53204;DHT22;39086;54.424;18.456;2022-08-20T09:09:36;25.40;99.90
53204;DHT22;39086;54.424;18.456;2022-08-20T09:10:39;25.40;99.90
53204;DHT22;39086;54.424;18.456;2022-08-20T09:11:53;25.40;99.90
53204;DHT22;39086;54.424;18.456;2022-08-20T09:13:04;25.40;99.90
53204;DHT22;39086;54.424;18.456;2022-08-20T09:14:06;25.50;99.90
53204;DHT22;39086;54.424;18.456;2022-08-20T09:15:10;25.40;99.90
53204;DHT22;39086;54.424;18.456;2022-08-20T09:16:13;25.50;99.90
53204;DHT22;39086;54.424;18.456;2022-08-20T09:17:19;25.60;99.90
53204;DHT22;39086;54.424;18.456;2022-08-20T09:18:29;25.50;99.90
53204;DHT22;39086;54.424;18.456;2022-08-20T09:19:33;25.40;99.90
53204;DHT22;39086;54.424;18.456;2022-08-20T09:20:37;25.40;99.90
53204;DHT22;39086;54.424;18.456;2022-08-20T09:21:42;25.40;99.90
53204;DHT22;39086;54.424;18.456;2022-08-20T09:22:45;25.50;99.90
53204;DHT22;39086;54.424;18.456;2022-08-20T09:23:55;25.60;99.90
53204;DHT22;39086;54.424;18.456;2022-08-20T12:10:52;27.30;99.90
53204;DHT22;39086;54.424;18.456;2022-08-20T12:26:06;26.30;99.90
53204;DHT22;39086;54.424;18.456;2022-08-20T12:27:17;26.40;99.90
53204;DHT22;39086;54.424;18.456;2022-08-20T12:28:21;26.40;99.90
53204;DHT22;39086;54.424;18.456;2022-08-20T12:29:32;26.40;99.90
53204;DHT22;39086;54.424;18.456;2022-08-20T12:30:34;26.30;99.90
53204;DHT22;39086;54.424;18.456;2022-08-20T12:31:37;26.10;99.90
53204;DHT22;39086;54.424;18.456;2022-08-20T12:32:41;26.00;99.90
53204;DHT22;39086;54.424;18.456;2022-08-20T12:33:45;25.80;99.90
53204;DHT22;39086;54.424;18.456;2022-08-20T12:34:55;25.70;99.90
53204;DHT22;39086;54.424;18.456;2022-08-20T12:35:58;25.70;99.90
53204;DHT22;39086;54.424;18.456;2022-08-20T12:37:04;25.70;99.90
53204;DHT22;39086;54.424;18.456;2022-08-20T12:38:06;25.60;99.90
53204;DHT22;39086;54.424;18.456;2022-08-20T12:39:10;25.60;99.90
53204;DHT22;39086;54.424;18.456;2022-08-20T12:40:22;25.70;99.90
53204;DHT22;39086;54.424;18.456;2022-08-20T12:41:34;25.50;99.90
53204;DHT22;39086;54.424;18.456;2022-08-20T12:42:36;25.50;99.90
53204;DHT22;39086;54.424;18.456;2022-08-20T12:43:39;25.60;99.90
53204;DHT22;39086;54.424;18.456;2022-08-20T12:44:42;25.60;99.90
53204;DHT22;39086;54.424;18.456;2022-08-20T12:45:52;25.60;99.90
53204;DHT22;39086;54.424;18.456;2022-08-20T12:47:05;25.70;99.90
53204;DHT22;39086;54.424;18.456;2022-08-20T12:48:11;25.70;99.90
53204;DHT22;39086;54.424;18.456;2022-08-20T12:49:15;25.80;99.90
53204;DHT22;39086;54.424;18.456;2022-08-20T12:50:20;25.70;99.90
53204;DHT22;39086;54.424;18.456;2022-08-20T12:51:32;25.90;99.90
53204;DHT22;39086;54.424;18.456;2022-08-20T12:52:36;25.90;99.90
53204;DHT22;39086;54.424;18.456;2022-08-20T12:53:39;25.90;99.90
53204;DHT22;39086;54.424;18.456;2022-08-20T12:54:42;25.90;99.90
53204;DHT22;39086;54.424;18.456;2022-08-20T12:55:46;26.00;99.90
53204;DHT22;39086;54.424;18.456;2022-08-20T12:56:56;26.00;99.90
53204;DHT22;39086;54.424;18.456;2022-08-20T12:58:00;26.30;99.90
53204;DHT22;39086;54.424;18.456;2022-08-20T12:59:05;26.20;99.90
53204;DHT22;39086;54.424;18.456;2022-08-20T13:00:22;26.20;99.90
53204;DHT22;39086;54.424;18.456;2022-08-20T13:01:25;26.20;99.90
53204;DHT22;39086;54.424;18.456;2022-08-20T13:02:35;26.20;99.90
53204;DHT22;39086;54.424;18.456;2022-08-20T13:03:40;26.30;99.90
53204;DHT22;39086;54.424;18.456;2022-08-20T13:04:46;26.20;99.90
53204;DHT22;39086;54.424;18.456;2022-08-20T13:05:49;26.20;99.90
53204;DHT22;39086;54.424;18.456;2022-08-20T13:06:59;26.30;99.90
53204;DHT22;39086;54.424;18.456;2022-08-20T13:08:12;26.20;99.90
53204;DHT22;39086;54.424;18.456;2022-08-20T13:09:16;26.10;99.90
53204;DHT22;39086;54.424;18.456;2022-08-20T13:10:22;26.00;99.90
53204;DHT22;39086;54.424;18.456;2022-08-20T13:11:26;26.00;99.90
53204;DHT22;39086;54.424;18.456;2022-08-20T13:12:35;25.90;99.90
53204;DHT22;39086;54.424;18.456;2022-08-20T13:13:38;25.80;99.90
53204;DHT22;39086;54.424;18.456;2022-08-20T13:14:41;25.70;99.90
53204;DHT22;39086;54.424;18.456;2022-08-20T13:15:45;25.70;99.90
53204;DHT22;39086;54.424;18.456;2022-08-20T13:16:47;25.60;99.90
53204;DHT22;39086;54.424;18.456;2022-08-20T13:18:04;25.60;99.90
53204;DHT22;39086;54.424;18.456;2022-08-20T13:19:16;25.50;99.90
53204;DHT22;39086;54.424;18.456;2022-08-20T13:20:18;25.50;99.90
53204;DHT22;39086;54.424;18.456;2022-08-20T13:21:22;25.40;99.90
53204;DHT22;39086;54.424;18.456;2022-08-20T13:22:25;25.40;99.90
53204;DHT22;39086;54.424;18.456;2022-08-20T13:23:34;25.40;99.90
53204;DHT22;39086;54.424;18.456;2022-08-20T13:24:38;25.50;99.90
53204;DHT22;39086;54.424;18.456;2022-08-20T13:25:40;25.40;99.90
53204;DHT22;39086;54.424;18.456;2022-08-20T13:26:43;25.40;99.90
53204;DHT22;39086;54.424;18.456;2022-08-20T13:27:46;25.40;99.90
53204;DHT22;39086;54.424;18.456;2022-08-20T13:28:56;25.50;99.90
53204;DHT22;39086;54.424;18.456;2022-08-20T13:29:58;25.50;99.90
53204;DHT22;39086;54.424;18.456;2022-08-20T13:31:01;25.50;99.90
53204;DHT22;39086;54.424;18.456;2022-08-20T13:32:04;25.80;99.90
53204;DHT22;39086;54.424;18.456;2022-08-20T13:33:08;25.80;99.90
53204;DHT22;39086;54.424;18.456;2022-08-20T13:34:18;25.90;99.90
53204;DHT22;39086;54.424;18.456;2022-08-20T13:35:22;25.80;99.90
53204;DHT22;39086;54.424;18.456;2022-08-20T13:36:24;25.80;99.90
53204;DHT22;39086;54.424;18.456;2022-08-20T13:37:28;25.90;99.90
53204;DHT22;39086;54.424;18.456;2022-08-20T13:38:30;25.80;99.90
53204;DHT22;39086;54.424;18.456;2022-08-20T13:39:41;25.80;99.90
53204;DHT22;39086;54.424;18.456;2022-08-20T13:40:44;25.70;99.90
53204;DHT22;39086;54.424;18.456;2022-08-20T13:41:49;25.50;99.90
53204;DHT22;39086;54.424;18.456;2022-08-20T13:42:52;25.50;99.90
53204;DHT22;39086;54.424;18.456;2022-08-20T13:43:56;25.40;99.90
53204;DHT22;39086;54.424;18.456;2022-08-20T13:45:06;25.40;99.90
53204;DHT22;39086;54.424;18.456;2022-08-20T13:46:09;25.40;99.90
53204;DHT22;39086;54.424;18.456;2022-08-20T13:47:13;25.30;99.90
53204;DHT22;39086;54.424;18.456;2022-08-20T13:48:16;25.40;99.90
53204;DHT22;39086;54.424;18.456;2022-08-20T13:49:21;25.40;99.90
53204;DHT22;39086;54.424;18.456;2022-08-20T13:50:35;25.30;99.90
53204;DHT22;39086;54.424;18.456;2022-08-20T13:51:38;25.20;99.90
53204;DHT22;39086;54.424;18.456;2022-08-20T13:52:41;25.10;99.90
53204;DHT22;39086;54.424;18.456;2022-08-20T13:53:46;25.10;99.90
53204;DHT22;39086;54.424;18.456;2022-08-20T13:54:49;25.10;99.90
53204;DHT22;39086;54.424;18.456;2022-08-20T13:55:59;24.90;99.90
53204;DHT22;39086;54.424;18.456;2022-08-20T13:57:05;24.90;99.90
53204;DHT22;39086;54.424;18.456;2022-08-20T13:58:07;24.80;99.90
53204;DHT22;39086;54.424;18.456;2022-08-20T13:59:10;24.80;99.90
53204;DHT22;39086;54.424;18.456;2022-08-20T14:00:27;24.70;99.90
53204;DHT22;39086;54.424;18.456;2022-08-20T14:01:37;24.70;99.90
53204;DHT22;39086;54.424;18.456;2022-08-20T14:02:41;24.60;99.90
53204;DHT22;39086;54.424;18.456;2022-08-20T14:03:44;24.50;99.90
53204;DHT22;39086;54.424;18.456;2022-08-20T14:04:51;24.40;99.90
53204;DHT22;39086;54.424;18.456;2022-08-20T14:05:54;24.30;99.90
53204;DHT22;39086;54.424;18.456;2022-08-20T14:07:15;24.20;99.90
53204;DHT22;39086;54.424;18.456;2022-08-20T14:08:22;24.00;99.90
53204;DHT22;39086;54.424;18.456;2022-08-20T14:09:24;23.90;99.90
53204;DHT22;39086;54.424;18.456;2022-08-20T14:10:28;23.90;99.90
53204;DHT22;39086;54.424;18.456;2022-08-20T14:11:33;23.90;99.90
53204;DHT22;39086;54.424;18.456;2022-08-20T14:12:43;23.90;99.90
53204;DHT22;39086;54.424;18.456;2022-08-20T14:14:00;23.90;99.90
53204;DHT22;39086;54.424;18.456;2022-08-20T14:15:04;23.90;99.90
53204;DHT22;39086;54.424;18.456;2022-08-20T14:16:07;23.90;99.90
53204;DHT22;39086;54.424;18.456;2022-08-20T14:17:31;23.90;99.90
53204;DHT22;39086;54.424;18.456;2022-08-20T14:18:35;24.00;99.90
53204;DHT22;39086;54.424;18.456;2022-08-20T14:19:52;24.10;99.90
53204;DHT22;39086;54.424;18.456;2022-08-20T14:21:02;24.10;99.90
53204;DHT22;39086;54.424;18.456;2022-08-20T14:22:05;24.00;99.90
53204;DHT22;39086;54.424;18.456;2022-08-20T14:23:07;24.10;99.90
53204;DHT22;39086;54.424;18.456;2022-08-20T14:24:17;24.20;99.90
53204;DHT22;39086;54.424;18.456;2022-08-20T14:25:21;24.20;99.90
53204;DHT22;39086;54.424;18.456;2022-08-20T14:26:24;24.20;99.90
53204;DHT22;39086;54.424;18.456;2022-08-20T14:27:27;24.20;99.90
53204;DHT22;39086;54.424;18.456;2022-08-20T14:28:32;24.20;99.90
53204;DHT22;39086;54.424;18.456;2022-08-20T14:29:44;24.20;99.90
53204;DHT22;39086;54.424;18.456;2022-08-20T14:30:47;24.20;99.90
53204;DHT22;39086;54.424;18.456;2022-08-20T14:31:54;24.20;99.90
53204;DHT22;39086;54.424;18.456;2022-08-20T14:32:56;24.40;99.90
53204;DHT22;39086;54.424;18.456;2022-08-20T14:34:00;24.40;99.90
53204;DHT22;39086;54.424;18.456;2022-08-20T14:35:11;24.50;99.90
53204;DHT22;39086;54.424;18.456;2022-08-20T14:36:21;24.40;99.90
53204;DHT22;39086;54.424;18.456;2022-08-20T14:37:26;24.50;99.90
53204;DHT22;39086;54.424;18.456;2022-08-20T14:38:29;24.50;99.90
53204;DHT22;39086;54.424;18.456;2022-08-20T14:39:39;24.60;99.90
53204;DHT22;39086;54.424;18.456;2022-08-20T14:40:41;24.50;99.90
53204;DHT22;39086;54.424;18.456;2022-08-20T14:41:45;24.40;99.90
53204;DHT22;39086;54.424;18.456;2022-08-20T14:42:47;24.50;99.90
53204;DHT22;39086;54.424;18.456;2022-08-20T14:43:54;24.40;99.90
53204;DHT22;39086;54.424;18.456;2022-08-20T14:45:08;24.40;99.90
53204;DHT22;39086;54.424;18.456;2022-08-20T14:46:10;24.40;99.90
53204;DHT22;39086;54.424;18.456;2022-08-20T14:47:16;24.40;99.90
53204;DHT22;39086;54.424;18.456;2022-08-20T14:48:18;24.30;99.90
53204;DHT22;39086;54.424;18.456;2022-08-20T14:49:22;24.30;99.90
53204;DHT22;39086;54.424;18.456;2022-08-20T14:50:34;24.40;99.90
53204;DHT22;39086;54.424;18.456;2022-08-20T14:51:44;24.50;99.90
53204;DHT22;39086;54.424;18.456;2022-08-20T14:52:47;24.70;99.90
53204;DHT22;39086;54.424;18.456;2022-08-20T14:53:50;24.90;99.90
53204;DHT22;39086;54.424;18.456;2022-08-20T14:54:53;25.00;99.90
53204;DHT22;39086;54.424;18.456;2022-08-20T14:56:03;25.10;99.90
53204;DHT22;39086;54.424;18.456;2022-08-20T14:57:07;25.10;99.90
53204;DHT22;39086;54.424;18.456;2022-08-20T14:58:14;25.30;99.90
53204;DHT22;39086;54.424;18.456;2022-08-20T14:59:24;25.40;99.90
53204;DHT22;39086;54.424;18.456;2022-08-20T15:00:32;25.40;99.90
53204;DHT22;39086;54.424;18.456;2022-08-20T15:01:42;25.40;99.90
53204;DHT22;39086;54.424;18.456;2022-08-20T15:04:52;25.20;99.90
53204;DHT22;39086;54.424;18.456;2022-08-20T15:05:58;25.30;99.90
53204;DHT22;39086;54.424;18.456;2022-08-20T15:07:25;25.30;99.90
53204;DHT22;39086;54.424;18.456;2022-08-20T15:08:34;25.20;99.90
53204;DHT22;39086;54.424;18.456;2022-08-20T15:09:38;25.30;99.90
53204;DHT22;39086;54.424;18.456;2022-08-20T15:10:40;25.30;99.90
53204;DHT22;39086;54.424;18.456;2022-08-20T15:11:50;25.30;99.90
53204;DHT22;39086;54.424;18.456;2022-08-20T15:12:53;25.30;99.90
53204;DHT22;39086;54.424;18.456;2022-08-20T15:13:59;25.40;99.90
53204;DHT22;39086;54.424;18.456;2022-08-20T15:15:02;25.50;99.90
53204;DHT22;39086;54.424;18.456;2022-08-20T15:16:16;25.50;99.90
53204;DHT22;39086;54.424;18.456;2022-08-20T15:17:29;25.60;99.90
53204;DHT22;39086;54.424;18.456;2022-08-20T15:18:39;25.70;99.90
53204;DHT22;39086;54.424;18.456;2022-08-20T15:19:44;25.80;99.90
53204;DHT22;39086;54.424;18.456;2022-08-20T15:20:46;25.80;99.90
53204;DHT22;39086;54.424;18.456;2022-08-20T15:21:51;25.90;99.90
53204;DHT22;39086;54.424;18.456;2022-08-20T15:22:53;25.90;99.90
53204;DHT22;39086;54.424;18.456;2022-08-20T15:24:03;26.10;99.90
53204;DHT22;39086;54.424;18.456;2022-08-20T15:25:18;26.10;99.90
53204;DHT22;39086;54.424;18.456;2022-08-20T15:26:22;26.20;99.90
53204;DHT22;39086;54.424;18.456;2022-08-20T15:27:25;26.10;99.90
53204;DHT22;39086;54.424;18.456;2022-08-20T15:28:35;26.10;99.90
53204;DHT22;39086;54.424;18.456;2022-08-20T15:29:38;26.10;99.90
53204;DHT22;39086;54.424;18.456;2022-08-20T15:30:47;26.10;99.90
53204;DHT22;39086;54.424;18.456;2022-08-20T15:31:50;26.00;99.90
53204;DHT22;39086;54.424;18.456;2022-08-20T15:32:54;25.90;99.90
53204;DHT22;39086;54.424;18.456;2022-08-20T15:33:59;25.90;99.90
53204;DHT22;39086;54.424;18.456;2022-08-20T15:35:18;25.80;99.90
53204;DHT22;39086;54.424;18.456;2022-08-20T15:36:22;25.60;99.90
53204;DHT22;39086;54.424;18.456;2022-08-20T15:37:25;25.40;99.90
53204;DHT22;39086;54.424;18.456;2022-08-20T15:38:29;25.40;99.90
53204;DHT22;39086;54.424;18.456;2022-08-20T15:39:41;25.40;99.90
53204;DHT22;39086;54.424;18.456;2022-08-20T15:40:44;25.30;99.90
53204;DHT22;39086;54.424;18.456;2022-08-20T15:41:47;25.30;99.90
53204;DHT22;39086;54.424;18.456;2022-08-20T15:42:50;25.10;99.90
53204;DHT22;39086;54.424;18.456;2022-08-20T15:43:54;25.20;99.90
53204;DHT22;39086;54.424;18.456;2022-08-20T15:45:05;25.10;99.90
53204;DHT22;39086;54.424;18.456;2022-08-20T15:46:23;25.10;99.90
53204;DHT22;39086;54.424;18.456;2022-08-20T15:47:48;25.00;99.90
53204;DHT22;39086;54.424;18.456;2022-08-20T15:48:51;25.10;99.90
53204;DHT22;39086;54.424;18.456;2022-08-20T15:50:02;25.00;99.90
53204;DHT22;39086;54.424;18.456;2022-08-20T15:51:22;25.00;99.90
53204;DHT22;39086;54.424;18.456;2022-08-20T15:52:39;25.10;99.90
53204;DHT22;39086;54.424;18.456;2022-08-20T15:53:53;25.10;99.90
53204;DHT22;39086;54.424;18.456;2022-08-20T15:54:58;25.10;99.90
53204;DHT22;39086;54.424;18.456;2022-08-20T15:56:11;25.00;99.90
53204;DHT22;39086;54.424;18.456;2022-08-20T16:00:08;24.90;99.90
53204;DHT22;39086;54.424;18.456;2022-08-20T16:01:27;24.90;99.90
53204;DHT22;39086;54.424;18.456;2022-08-20T16:02:59;24.90;99.90
53204;DHT22;39086;54.424;18.456;2022-08-20T16:04:24;24.90;99.90
53204;DHT22;39086;54.424;18.456;2022-08-20T16:05:42;24.90;99.90
53204;DHT22;39086;54.424;18.456;2022-08-20T16:06:59;24.80;99.90
53204;DHT22;39086;54.424;18.456;2022-08-20T16:08:11;24.80;99.90
53204;DHT22;39086;54.424;18.456;2022-08-20T16:09:37;24.90;99.90
53204;DHT22;39086;54.424;18.456;2022-08-20T16:10:57;24.70;99.90
53204;DHT22;39086;54.424;18.456;2022-08-20T16:12:10;24.90;99.90
53204;DHT22;39086;54.424;18.456;2022-08-20T16:13:22;24.70;99.90
53204;DHT22;39086;54.424;18.456;2022-08-20T16:14:35;24.80;99.90
53204;DHT22;39086;54.424;18.456;2022-08-20T16:15:44;24.70;99.90